This is the latest recevied weather packets stored in our database for station/object DG8SBT-10. If no packets are shown the sender has not sent any weather packets the latest 10 day(s).
| Time | Temp. | Humidity | Pressure | Rain* | Wind** | Luminosity | Snow |
|---|---|---|---|---|---|---|---|
| 1788357852 | 26.67° C | 39% | 1021.9 hPa | - | - | - | - |
| 1788356052 | 26.11° C | 40% | 1021.8 hPa | - | - | - | - |
| 1788355151 | 27.22° C | 38% | 1021.7 hPa | - | - | - | - |
| 1788353351 | 27.22° C | 37% | 1021.9 hPa | - | - | - | - |
| 1788352451 | 26.67° C | 39% | 1022 hPa | - | - | - | - |
| 1788351551 | 27.78° C | 37% | 1022.1 hPa | - | - | - | - |
| 1788349751 | 26.67° C | 39% | 1022.1 hPa | - | - | - | - |
| 1788348851 | 25.56° C | 41% | 1022.2 hPa | - | - | - | - |
| 1788347950 | 26.67° C | 38% | 1022.3 hPa | - | - | - | - |
| 1788347049 | 26.11° C | 41% | 1022.5 hPa | - | - | - | - |
| 1788345249 | 25.56° C | 43% | 1023 hPa | - | - | - | - |
| 1788344348 | 25.56° C | 43% | 1023 hPa | - | - | - | - |
| 1788343448 | 24.44° C | 45% | 1023.2 hPa | - | - | - | - |
| 1788342548 | 25.56° C | 42% | 1023.2 hPa | - | - | - | - |
| 1788341648 | 24.44° C | 44% | 1023.5 hPa | - | - | - | - |
| 1788340748 | 25° C | 42% | 1023.4 hPa | - | - | - | - |
| 1788339848 | 25° C | 42% | 1023.5 hPa | - | - | - | - |
| 1788338948 | 23.89° C | 45% | 1023.3 hPa | - | - | - | - |
| 1788338048 | 23.33° C | 45% | 1023.5 hPa | - | - | - | - |
| 1788337147 | 23.33° C | 45% | 1023.4 hPa | - | - | - | - |
| 1788336248 | 22.22° C | 47% | 1023.4 hPa | - | - | - | - |
| 1788335348 | 21.67° C | 48% | 1023.5 hPa | - | - | - | - |
| 1788334447 | 22.78° C | 45% | 1023.2 hPa | - | - | - | - |
| 1788333547 | 21.11° C | 48% | 1023.5 hPa | - | - | - | - |
| 1788332647 | 21.11° C | 49% | 1023.5 hPa | - | - | - | - |
* Rain since midnight (hover to see other rain measurements)
** Current wind speed in m/s (hover to see current wind gust speed)